Leonie — PHLE — position and weather

sailwx.info

Track history (hours):
 
Tides and Currents Weather Stations Pressure Air Temp Water Temp Dewpoint Dewpoint Depression Visibility Wind Speed Wind Dir Waves Ship Positions

Leonie

Last reported at 2015-Mar-01 15:33 UTC. Time now 2015-Mar-01 19:25 UTC.
Position N 53°59' E 008°16'.

Date/timePositionNaut miles runAvg speedWind from/ knotsBaromVisibWave heightAir tempDewpointWater temp
2015-Mar-01 15:33N 53°59' E 008°16'28642844.7
2015-Mar-01 14:33N 06°27' E 003°22'2820256.5
2015-Mar-01 03:33N 53°26' E 004°52'2821234.9
2015-Feb-28 15:33N 06°26' E 003°24'2763923.1
2015-Feb-28 12:33N 52°28' E 004°36'0 0.0
2015-Feb-28 11:33N 52°28' E 004°36'2763344.7
2015-Feb-28 03:32N 06°26' E 003°24'0 0.3
2015-Feb-28 02:33N 06°26' E 003°24'27632755.4
2015-Feb-28 01:33N 52°28' E 004°36'27631387.5
2015-Feb-27 23:33N 06°26' E 003°24'27631375.6
2015-Feb-27 21:33N 52°28' E 004°36'27632787.0
2015-Feb-27 20:33N 06°26' E 003°24'2763251.0
2015-Feb-27 09:33N 52°28' E 004°36'27632768.0
2015-Feb-27 08:33N 06°27' E 003°23'2763460.3
2015-Feb-27 02:33N 52°28' E 004°36'0 0.0
2015-Feb-27 01:33N 52°28' E 004°36'3 0.2
2015-Feb-26 14:34N 52°28' E 004°32'9 9.4
2015-Feb-26 13:33N 52°22' E 004°20'1211.6
2015-Feb-26 12:33N 52°12' E 004°11'21 5.1
2015-Feb-26 08:33N 51°54' E 004°28'0 0.0
2015-Feb-26 07:33N 51°54' E 004°28'0 0.0
2015-Feb-26 06:33N 51°54' E 004°28'27292743.8
2015-Feb-26 05:33N 06°26' E 003°24'27292713.5
2015-Feb-26 04:33N 51°54' E 004°28'0 0.0
2015-Feb-26 03:33N 51°54' E 004°28'0 0.0
2015-Feb-26 01:33N 51°54' E 004°28'27292740.0
2015-Feb-26 00:33N 06°26' E 003°24'0 0.0
2015-Feb-25 23:33N 06°26' E 003°24'0 0.0
2015-Feb-25 22:33N 06°26' E 003°24'27292721.7
2015-Feb-25 21:33N 51°54' E 004°28'0 0.0
2015-Feb-25 20:33N 51°54' E 004°28'0 0.0
2015-Feb-25 19:33N 51°54' E 004°28'0 0.0
2015-Feb-25 18:33N 51°54' E 004°28'27322767.8
2015-Feb-25 17:34N 06°22' E 003°25'27322697.2
2015-Feb-25 16:33N 51°54' E 004°28'27281372.0
2015-Feb-25 14:33N 06°27' E 003°22'27261334.3
2015-Feb-25 12:31N 51°53' E 004°25'0 0.0
2015-Feb-25 11:31N 51°53' E 004°25'0 0.0
2015-Feb-25 09:31N 51°53' E 004°25'0 0.0
2015-Feb-25 06:31N 51°53' E 004°25'2727170.6
2015-Feb-24 14:32N 06°26' E 003°24'0 0.5
2015-Feb-24 13:33N 06°26' E 003°24'3 3.0
2015-Feb-24 12:32N 06°23' E 003°24'3 1.7
2015-Feb-24 10:32N 06°26' E 003°24'2728195.2
2015-Feb-23 20:33N 51°54' E 004°22'9 9.4
2015-Feb-23 19:33N 51°58' E 004°08'7310.4
2015-Feb-23 12:32N 51°30' E 002°19'16 8.2
2015-Feb-23 10:33N 51°16' E 002°05'17 8.6
2015-Feb-23 08:34N 51°06' E 001°43'  
Track history (hours):
 
Tides and Currents Weather Stations Pressure Air Temp Water Temp Dewpoint Dewpoint Depression Visibility Wind Speed Wind Dir Waves Ship Positions

Leonie

Last reported at 2015-Mar-01 15:33 UTC. Time now 2015-Mar-01 19:25 UTC.
Position N 53°59' E 008°16'.

Date/timePositionNaut miles runAvg speedWind from/ knotsBaromVisibWave heightAir tempDewpointWater temp
2015-Mar-01 15:33N 53°59' E 008°16'28642844.7
2015-Mar-01 14:33N 06°27' E 003°22'2820256.5
2015-Mar-01 03:33N 53°26' E 004°52'2821234.9
2015-Feb-28 15:33N 06°26' E 003°24'2763923.1
2015-Feb-28 12:33N 52°28' E 004°36'0 0.0
2015-Feb-28 11:33N 52°28' E 004°36'2763344.7
2015-Feb-28 03:32N 06°26' E 003°24'0 0.3
2015-Feb-28 02:33N 06°26' E 003°24'27632755.4
2015-Feb-28 01:33N 52°28' E 004°36'27631387.5
2015-Feb-27 23:33N 06°26' E 003°24'27631375.6
2015-Feb-27 21:33N 52°28' E 004°36'27632787.0
2015-Feb-27 20:33N 06°26' E 003°24'2763251.0
2015-Feb-27 09:33N 52°28' E 004°36'27632768.0
2015-Feb-27 08:33N 06°27' E 003°23'2763460.3
2015-Feb-27 02:33N 52°28' E 004°36'0 0.0
2015-Feb-27 01:33N 52°28' E 004°36'3 0.2
2015-Feb-26 14:34N 52°28' E 004°32'9 9.4
2015-Feb-26 13:33N 52°22' E 004°20'1211.6
2015-Feb-26 12:33N 52°12' E 004°11'21 5.1
2015-Feb-26 08:33N 51°54' E 004°28'0 0.0
2015-Feb-26 07:33N 51°54' E 004°28'0 0.0
2015-Feb-26 06:33N 51°54' E 004°28'27292743.8
2015-Feb-26 05:33N 06°26' E 003°24'27292713.5
2015-Feb-26 04:33N 51°54' E 004°28'0 0.0
2015-Feb-26 03:33N 51°54' E 004°28'0 0.0
2015-Feb-26 01:33N 51°54' E 004°28'27292740.0
2015-Feb-26 00:33N 06°26' E 003°24'0 0.0
2015-Feb-25 23:33N 06°26' E 003°24'0 0.0
2015-Feb-25 22:33N 06°26' E 003°24'27292721.7
2015-Feb-25 21:33N 51°54' E 004°28'0 0.0
2015-Feb-25 20:33N 51°54' E 004°28'0 0.0
2015-Feb-25 19:33N 51°54' E 004°28'0 0.0
2015-Feb-25 18:33N 51°54' E 004°28'27322767.8
2015-Feb-25 17:34N 06°22' E 003°25'27322697.2
2015-Feb-25 16:33N 51°54' E 004°28'27281372.0
2015-Feb-25 14:33N 06°27' E 003°22'27261334.3
2015-Feb-25 12:31N 51°53' E 004°25'0 0.0
2015-Feb-25 11:31N 51°53' E 004°25'0 0.0
2015-Feb-25 09:31N 51°53' E 004°25'0 0.0
2015-Feb-25 06:31N 51°53' E 004°25'2727170.6
2015-Feb-24 14:32N 06°26' E 003°24'0 0.5
2015-Feb-24 13:33N 06°26' E 003°24'3 3.0
2015-Feb-24 12:32N 06°23' E 003°24'3 1.7
2015-Feb-24 10:32N 06°26' E 003°24'2728195.2
2015-Feb-23 20:33N 51°54' E 004°22'9 9.4
2015-Feb-23 19:33N 51°58' E 004°08'7310.4
2015-Feb-23 12:32N 51°30' E 002°19'16 8.2
2015-Feb-23 10:33N 51°16' E 002°05'17 8.6
2015-Feb-23 08:34N 51°06' E 001°43'  

Dump ship's entire track history